sensor_id;sensor_type;location;lat;lon;timestamp;pressure;altitude;pressure_sealevel;temperature;humidity
80424;BME280;69765;47.668;19.326;2023-07-31T00:00:44;98819.38;;;17.07;95.59
80424;BME280;69765;47.668;19.326;2023-07-31T00:03:49;98822.16;;;16.88;96.07
80424;BME280;69765;47.668;19.326;2023-07-31T00:06:51;98828.69;;;16.78;96.65
80424;BME280;69765;47.668;19.326;2023-07-31T00:09:54;98814.28;;;16.61;97.41
80424;BME280;69765;47.668;19.326;2023-07-31T00:12:56;98827.28;;;16.64;98.02
80424;BME280;69765;47.668;19.326;2023-07-31T00:15:59;98831.00;;;16.71;97.83
80424;BME280;69765;47.668;19.326;2023-07-31T00:19:01;98825.28;;;16.79;96.89
80424;BME280;69765;47.668;19.326;2023-07-31T00:22:04;98830.75;;;16.87;96.47
80424;BME280;69765;47.668;19.326;2023-07-31T00:25:06;98823.94;;;16.89;96.08
80424;BME280;69765;47.668;19.326;2023-07-31T00:28:09;98824.06;;;16.94;95.90
80424;BME280;69765;47.668;19.326;2023-07-31T00:31:12;98827.72;;;16.99;95.34
80424;BME280;69765;47.668;19.326;2023-07-31T00:34:14;98825.94;;;16.98;95.09
80424;BME280;69765;47.668;19.326;2023-07-31T00:37:16;98824.47;;;17.04;95.26
80424;BME280;69765;47.668;19.326;2023-07-31T00:40:19;98828.09;;;17.09;94.61
80424;BME280;69765;47.668;19.326;2023-07-31T00:43:21;98823.50;;;17.02;95.09
80424;BME280;69765;47.668;19.326;2023-07-31T00:46:24;98820.09;;;16.79;95.19
80424;BME280;69765;47.668;19.326;2023-07-31T00:49:27;98811.84;;;16.66;96.52
80424;BME280;69765;47.668;19.326;2023-07-31T00:52:30;98809.31;;;16.67;96.55
80424;BME280;69765;47.668;19.326;2023-07-31T00:55:33;98811.25;;;16.73;96.66
80424;BME280;69765;47.668;19.326;2023-07-31T00:58:35;98815.47;;;16.71;96.67
80424;BME280;69765;47.668;19.326;2023-07-31T01:01:38;98819.84;;;16.72;96.65
80424;BME280;69765;47.668;19.326;2023-07-31T01:04:42;98824.94;;;16.70;96.88
80424;BME280;69765;47.668;19.326;2023-07-31T01:07:52;98828.41;;;16.71;95.88
80424;BME280;69765;47.668;19.326;2023-07-31T01:11:02;98821.66;;;16.74;96.40
80424;BME280;69765;47.668;19.326;2023-07-31T01:14:08;98814.53;;;16.69;96.44
80424;BME280;69765;47.668;19.326;2023-07-31T01:17:11;98819.44;;;16.61;96.79
80424;BME280;69765;47.668;19.326;2023-07-31T01:20:20;98808.41;;;16.43;97.58
80424;BME280;69765;47.668;19.326;2023-07-31T01:26:38;98803.72;;;16.32;98.63
80424;BME280;69765;47.668;19.326;2023-07-31T01:29:58;98801.41;;;16.40;98.41
80424;BME280;69765;47.668;19.326;2023-07-31T01:33:02;98790.03;;;16.35;98.71
80424;BME280;69765;47.668;19.326;2023-07-31T01:36:10;98800.72;;;16.44;98.25
80424;BME280;69765;47.668;19.326;2023-07-31T01:39:14;98798.25;;;16.47;97.57
80424;BME280;69765;47.668;19.326;2023-07-31T01:42:17;98806.19;;;16.52;97.81
80424;BME280;69765;47.668;19.326;2023-07-31T01:45:19;98800.75;;;16.46;98.06
80424;BME280;69765;47.668;19.326;2023-07-31T01:48:22;98807.47;;;16.41;98.12
80424;BME280;69765;47.668;19.326;2023-07-31T01:51:24;98802.94;;;16.35;97.98
80424;BME280;69765;47.668;19.326;2023-07-31T01:54:26;98803.47;;;16.26;97.76
80424;BME280;69765;47.668;19.326;2023-07-31T01:57:29;98811.66;;;16.15;97.64
80424;BME280;69765;47.668;19.326;2023-07-31T02:00:31;98815.66;;;16.06;98.05
80424;BME280;69765;47.668;19.326;2023-07-31T02:03:34;98824.06;;;16.01;98.40
80424;BME280;69765;47.668;19.326;2023-07-31T02:06:38;98804.91;;;15.96;98.76
80424;BME280;69765;47.668;19.326;2023-07-31T02:09:41;98816.06;;;16.17;100.00
80424;BME280;69765;47.668;19.326;2023-07-31T02:12:44;98803.72;;;16.32;100.00
80424;BME280;69765;47.668;19.326;2023-07-31T02:15:46;98806.72;;;16.43;99.64
80424;BME280;69765;47.668;19.326;2023-07-31T02:18:48;98796.38;;;16.43;99.68
80424;BME280;69765;47.668;19.326;2023-07-31T02:21:51;98805.59;;;16.60;99.59
80424;BME280;69765;47.668;19.326;2023-07-31T02:24:53;98805.72;;;16.64;99.69
80424;BME280;69765;47.668;19.326;2023-07-31T02:27:57;98806.09;;;16.73;99.00
80424;BME280;69765;47.668;19.326;2023-07-31T02:31:00;98813.00;;;16.74;98.97
80424;BME280;69765;47.668;19.326;2023-07-31T02:34:02;98804.50;;;16.76;98.80
80424;BME280;69765;47.668;19.326;2023-07-31T02:37:05;98806.28;;;16.79;99.00
80424;BME280;69765;47.668;19.326;2023-07-31T02:40:08;98796.81;;;16.79;98.83
80424;BME280;69765;47.668;19.326;2023-07-31T02:43:10;98793.19;;;16.74;98.95
80424;BME280;69765;47.668;19.326;2023-07-31T02:46:13;98796.16;;;16.61;99.08
80424;BME280;69765;47.668;19.326;2023-07-31T02:49:15;98799.28;;;16.52;99.83
80424;BME280;69765;47.668;19.326;2023-07-31T02:52:18;98803.59;;;16.52;100.00
80424;BME280;69765;47.668;19.326;2023-07-31T02:55:20;98813.09;;;16.53;100.00
80424;BME280;69765;47.668;19.326;2023-07-31T02:58:22;98815.72;;;16.54;100.00
80424;BME280;69765;47.668;19.326;2023-07-31T03:01:25;98809.09;;;16.61;100.00
80424;BME280;69765;47.668;19.326;2023-07-31T03:04:28;98812.38;;;16.57;99.82
80424;BME280;69765;47.668;19.326;2023-07-31T03:07:30;98812.47;;;16.60;99.95
80424;BME280;69765;47.668;19.326;2023-07-31T03:10:33;98812.47;;;16.60;98.19
80424;BME280;69765;47.668;19.326;2023-07-31T03:13:35;98816.59;;;16.55;98.36
80424;BME280;69765;47.668;19.326;2023-07-31T03:16:37;98823.53;;;16.56;98.95
80424;BME280;69765;47.668;19.326;2023-07-31T03:19:40;98833.09;;;16.57;99.17
80424;BME280;69765;47.668;19.326;2023-07-31T03:22:42;98821.78;;;16.55;99.50
80424;BME280;69765;47.668;19.326;2023-07-31T03:25:59;98830.50;;;16.57;99.54
80424;BME280;69765;47.668;19.326;2023-07-31T03:29:05;98837.41;;;16.58;99.05
80424;BME280;69765;47.668;19.326;2023-07-31T03:32:07;98844.69;;;16.68;99.17
80424;BME280;69765;47.668;19.326;2023-07-31T03:35:19;98843.19;;;16.73;98.70
80424;BME280;69765;47.668;19.326;2023-07-31T03:38:21;98841.59;;;16.77;98.31
80424;BME280;69765;47.668;19.326;2023-07-31T03:41:23;98833.78;;;16.75;98.73
80424;BME280;69765;47.668;19.326;2023-07-31T03:44:26;98836.06;;;16.92;98.01
80424;BME280;69765;47.668;19.326;2023-07-31T03:47:28;98833.53;;;16.93;97.88
80424;BME280;69765;47.668;19.326;2023-07-31T03:50:31;98849.63;;;17.08;97.15
80424;BME280;69765;47.668;19.326;2023-07-31T03:53:35;98836.09;;;17.17;97.07
80424;BME280;69765;47.668;19.326;2023-07-31T03:56:37;98849.28;;;17.23;96.71
80424;BME280;69765;47.668;19.326;2023-07-31T03:59:41;98844.34;;;17.31;96.52
80424;BME280;69765;47.668;19.326;2023-07-31T04:02:43;98844.44;;;17.34;96.17
80424;BME280;69765;47.668;19.326;2023-07-31T04:05:45;98843.16;;;17.47;95.82
80424;BME280;69765;47.668;19.326;2023-07-31T04:08:48;98846.09;;;17.57;95.38
80424;BME280;69765;47.668;19.326;2023-07-31T04:11:50;98840.31;;;17.65;94.84
80424;BME280;69765;47.668;19.326;2023-07-31T04:14:52;98828.25;;;17.67;94.23
80424;BME280;69765;47.668;19.326;2023-07-31T04:17:55;98837.53;;;17.85;93.07
80424;BME280;69765;47.668;19.326;2023-07-31T04:20:57;98841.28;;;17.95;93.34
80424;BME280;69765;47.668;19.326;2023-07-31T04:24:03;98838.09;;;18.02;92.33
80424;BME280;69765;47.668;19.326;2023-07-31T04:27:06;98829.50;;;18.05;91.64
80424;BME280;69765;47.668;19.326;2023-07-31T04:30:08;98842.16;;;18.23;91.18
80424;BME280;69765;47.668;19.326;2023-07-31T04:33:10;98842.28;;;18.27;91.15
80424;BME280;69765;47.668;19.326;2023-07-31T04:36:13;98841.81;;;18.41;90.51
80424;BME280;69765;47.668;19.326;2023-07-31T04:39:15;98852.41;;;18.48;90.04
80424;BME280;69765;47.668;19.326;2023-07-31T04:42:17;98849.81;;;18.48;89.75
80424;BME280;69765;47.668;19.326;2023-07-31T04:45:20;98837.97;;;18.56;89.78
80424;BME280;69765;47.668;19.326;2023-07-31T04:48:22;98849.34;;;18.61;89.26
80424;BME280;69765;47.668;19.326;2023-07-31T04:51:24;98844.16;;;18.61;88.55
80424;BME280;69765;47.668;19.326;2023-07-31T04:54:27;98847.28;;;18.78;88.40
80424;BME280;69765;47.668;19.326;2023-07-31T04:57:29;98851.34;;;18.70;88.88
80424;BME280;69765;47.668;19.326;2023-07-31T05:00:31;98840.34;;;18.77;88.13
80424;BME280;69765;47.668;19.326;2023-07-31T05:03:34;98832.97;;;18.93;87.81
80424;BME280;69765;47.668;19.326;2023-07-31T05:06:36;98838.28;;;18.97;86.82
80424;BME280;69765;47.668;19.326;2023-07-31T05:09:39;98841.84;;;19.01;86.30
80424;BME280;69765;47.668;19.326;2023-07-31T05:12:41;98834.16;;;19.05;84.87
80424;BME280;69765;47.668;19.326;2023-07-31T05:15:43;98835.47;;;19.21;83.92
80424;BME280;69765;47.668;19.326;2023-07-31T05:18:46;98833.72;;;19.20;82.55
80424;BME280;69765;47.668;19.326;2023-07-31T05:21:48;98845.97;;;19.26;81.24
80424;BME280;69765;47.668;19.326;2023-07-31T05:24:50;98842.97;;;19.44;80.27
80424;BME280;69765;47.668;19.326;2023-07-31T05:27:53;98856.66;;;19.38;78.49
80424;BME280;69765;47.668;19.326;2023-07-31T05:30:59;98870.47;;;19.35;77.88
80424;BME280;69765;47.668;19.326;2023-07-31T05:34:03;98866.75;;;19.26;76.70
80424;BME280;69765;47.668;19.326;2023-07-31T05:37:05;98870.69;;;19.11;77.48
80424;BME280;69765;47.668;19.326;2023-07-31T05:40:08;98869.22;;;19.21;77.60
80424;BME280;69765;47.668;19.326;2023-07-31T05:43:10;98873.94;;;19.04;77.43
80424;BME280;69765;47.668;19.326;2023-07-31T05:46:13;98859.06;;;19.30;75.61
80424;BME280;69765;47.668;19.326;2023-07-31T05:49:15;98870.28;;;19.61;74.43
80424;BME280;69765;47.668;19.326;2023-07-31T05:52:18;98874.72;;;20.00;72.13
80424;BME280;69765;47.668;19.326;2023-07-31T05:55:20;98878.00;;;20.68;70.22
80424;BME280;69765;47.668;19.326;2023-07-31T05:58:23;98877.75;;;21.42;67.27
80424;BME280;69765;47.668;19.326;2023-07-31T06:01:25;98869.88;;;21.90;64.14
80424;BME280;69765;47.668;19.326;2023-07-31T06:04:28;98859.72;;;22.71;61.34
80424;BME280;69765;47.668;19.326;2023-07-31T06:07:30;98870.63;;;23.91;56.49
80424;BME280;69765;47.668;19.326;2023-07-31T06:10:32;98866.00;;;24.97;53.38
80424;BME280;69765;47.668;19.326;2023-07-31T06:13:35;98851.28;;;25.66;50.60
80424;BME280;69765;47.668;19.326;2023-07-31T06:16:38;98866.06;;;26.67;48.71
80424;BME280;69765;47.668;19.326;2023-07-31T06:19:40;98861.81;;;25.98;49.07
80424;BME280;69765;47.668;19.326;2023-07-31T06:22:42;98864.38;;;25.27;51.42
80424;BME280;69765;47.668;19.326;2023-07-31T06:25:45;98879.19;;;25.09;51.59
80424;BME280;69765;47.668;19.326;2023-07-31T06:28:47;98881.69;;;24.86;53.84
80424;BME280;69765;47.668;19.326;2023-07-31T06:31:49;98888.56;;;24.64;53.33
80424;BME280;69765;47.668;19.326;2023-07-31T06:34:52;98887.53;;;24.36;54.66
80424;BME280;69765;47.668;19.326;2023-07-31T06:37:54;98887.66;;;24.56;54.39
80424;BME280;69765;47.668;19.326;2023-07-31T06:40:56;98881.88;;;25.54;51.38
80424;BME280;69765;47.668;19.326;2023-07-31T06:43:59;98883.03;;;24.21;54.11
80424;BME280;69765;47.668;19.326;2023-07-31T06:47:01;98889.34;;;24.51;54.84
80424;BME280;69765;47.668;19.326;2023-07-31T06:50:04;98884.94;;;24.41;56.15
80424;BME280;69765;47.668;19.326;2023-07-31T06:53:07;98891.22;;;23.59;57.71
80424;BME280;69765;47.668;19.326;2023-07-31T06:56:09;98896.53;;;22.88;59.05
80424;BME280;69765;47.668;19.326;2023-07-31T06:59:11;98909.63;;;22.91;59.27
80424;BME280;69765;47.668;19.326;2023-07-31T07:02:14;98910.28;;;22.75;59.60
80424;BME280;69765;47.668;19.326;2023-07-31T07:05:17;98904.25;;;22.82;59.95
80424;BME280;69765;47.668;19.326;2023-07-31T07:08:19;98903.75;;;23.07;59.63
80424;BME280;69765;47.668;19.326;2023-07-31T07:11:21;98890.22;;;23.45;59.65
80424;BME280;69765;47.668;19.326;2023-07-31T07:14:24;98904.25;;;23.55;59.53
80424;BME280;69765;47.668;19.326;2023-07-31T07:17:27;98896.31;;;23.44;59.66
80424;BME280;69765;47.668;19.326;2023-07-31T07:20:30;98896.41;;;23.53;58.71
80424;BME280;69765;47.668;19.326;2023-07-31T07:23:32;98892.31;;;23.80;56.76
80424;BME280;69765;47.668;19.326;2023-07-31T07:26:34;98893.53;;;24.28;54.22
80424;BME280;69765;47.668;19.326;2023-07-31T07:29:38;98894.81;;;24.95;53.66
80424;BME280;69765;47.668;19.326;2023-07-31T07:32:40;98881.03;;;25.67;52.55
80424;BME280;69765;47.668;19.326;2023-07-31T07:35:42;98886.31;;;25.87;50.09
80424;BME280;69765;47.668;19.326;2023-07-31T07:38:45;98886.28;;;26.36;49.23
80424;BME280;69765;47.668;19.326;2023-07-31T07:41:47;98882.72;;;26.70;46.86
80424;BME280;69765;47.668;19.326;2023-07-31T07:44:49;98874.72;;;26.95;44.40
80424;BME280;69765;47.668;19.326;2023-07-31T07:47:52;98876.13;;;27.60;43.47
80424;BME280;69765;47.668;19.326;2023-07-31T07:50:54;98883.16;;;27.60;42.19
80424;BME280;69765;47.668;19.326;2023-07-31T07:53:57;98883.44;;;28.35;41.47
80424;BME280;69765;47.668;19.326;2023-07-31T07:57:00;98874.41;;;28.59;41.75
80424;BME280;69765;47.668;19.326;2023-07-31T08:00:02;98882.22;;;28.65;40.95
80424;BME280;69765;47.668;19.326;2023-07-31T08:03:14;98881.78;;;29.05;38.65
80424;BME280;69765;47.668;19.326;2023-07-31T08:06:19;98880.34;;;29.44;39.33
80424;BME280;69765;47.668;19.326;2023-07-31T08:09:21;98878.81;;;29.29;36.62
80424;BME280;69765;47.668;19.326;2023-07-31T08:12:23;98877.25;;;29.76;36.99
80424;BME280;69765;47.668;19.326;2023-07-31T08:15:26;98882.91;;;30.55;36.74
80424;BME280;69765;47.668;19.326;2023-07-31T08:18:28;98877.47;;;30.65;34.87
80424;BME280;69765;47.668;19.326;2023-07-31T08:21:31;98873.22;;;29.51;35.75
80424;BME280;69765;47.668;19.326;2023-07-31T08:24:34;98874.88;;;29.60;37.48
80424;BME280;69765;47.668;19.326;2023-07-31T08:27:36;98889.66;;;30.25;36.60
80424;BME280;69765;47.668;19.326;2023-07-31T08:30:38;98879.13;;;30.22;34.77
80424;BME280;69765;47.668;19.326;2023-07-31T08:33:41;98878.41;;;30.11;35.23
80424;BME280;69765;47.668;19.326;2023-07-31T08:36:44;98883.97;;;29.96;34.10
80424;BME280;69765;47.668;19.326;2023-07-31T08:39:46;98878.22;;;30.23;33.75
80424;BME280;69765;47.668;19.326;2023-07-31T08:42:55;98866.72;;;30.74;33.12
80424;BME280;69765;47.668;19.326;2023-07-31T08:45:59;98871.16;;;30.70;32.88
80424;BME280;69765;47.668;19.326;2023-07-31T08:49:04;98871.47;;;31.00;31.33
80424;BME280;69765;47.668;19.326;2023-07-31T08:52:08;98871.78;;;31.26;30.75
80424;BME280;69765;47.668;19.326;2023-07-31T08:55:10;98869.13;;;31.65;30.87
80424;BME280;69765;47.668;19.326;2023-07-31T08:58:13;98876.91;;;32.09;31.08
80424;BME280;69765;47.668;19.326;2023-07-31T09:01:16;98867.63;;;31.92;31.04
80424;BME280;69765;47.668;19.326;2023-07-31T09:04:19;98856.00;;;31.22;31.95
80424;BME280;69765;47.668;19.326;2023-07-31T09:07:23;98864.31;;;31.45;31.69
80424;BME280;69765;47.668;19.326;2023-07-31T09:10:26;98858.94;;;30.18;31.72
80424;BME280;69765;47.668;19.326;2023-07-31T09:13:32;98862.38;;;30.70;31.70
80424;BME280;69765;47.668;19.326;2023-07-31T09:16:35;98858.41;;;30.91;31.11
80424;BME280;69765;47.668;19.326;2023-07-31T09:19:37;98859.63;;;31.56;31.64
80424;BME280;69765;47.668;19.326;2023-07-31T09:22:40;98858.09;;;30.63;32.53
80424;BME280;69765;47.668;19.326;2023-07-31T09:25:45;98855.84;;;30.88;32.15
80424;BME280;69765;47.668;19.326;2023-07-31T09:28:48;98854.25;;;31.21;31.48
80424;BME280;69765;47.668;19.326;2023-07-31T09:31:50;98853.09;;;31.71;30.80
80424;BME280;69765;47.668;19.326;2023-07-31T09:34:53;98860.03;;;31.40;30.04
80424;BME280;69765;47.668;19.326;2023-07-31T09:37:58;98863.03;;;32.66;29.23
80424;BME280;69765;47.668;19.326;2023-07-31T09:41:00;98849.28;;;34.48;26.67
80424;BME280;69765;47.668;19.326;2023-07-31T09:44:03;98852.22;;;35.12;25.79
80424;BME280;69765;47.668;19.326;2023-07-31T09:47:05;98854.25;;;35.73;24.41
80424;BME280;69765;47.668;19.326;2023-07-31T09:50:08;98851.94;;;34.96;25.19
80424;BME280;69765;47.668;19.326;2023-07-31T09:53:11;98838.41;;;35.90;23.99
80424;BME280;69765;47.668;19.326;2023-07-31T09:56:14;98836.66;;;36.11;24.16
80424;BME280;69765;47.668;19.326;2023-07-31T09:59:18;98836.09;;;37.03;22.86
80424;BME280;69765;47.668;19.326;2023-07-31T10:02:26;98834.09;;;36.88;22.09
80424;BME280;69765;47.668;19.326;2023-07-31T10:05:38;98836.88;;;35.41;22.81
80424;BME280;69765;47.668;19.326;2023-07-31T10:08:43;98846.00;;;36.01;22.60
80424;BME280;69765;47.668;19.326;2023-07-31T10:11:55;98853.19;;;36.60;22.64
80424;BME280;69765;47.668;19.326;2023-07-31T10:14:59;98844.47;;;37.15;21.82
80424;BME280;69765;47.668;19.326;2023-07-31T10:18:02;98840.03;;;37.51;21.54
80424;BME280;69765;47.668;19.326;2023-07-31T10:21:05;98839.69;;;38.28;20.72
80424;BME280;69765;47.668;19.326;2023-07-31T10:24:08;98846.53;;;37.82;21.52
80424;BME280;69765;47.668;19.326;2023-07-31T10:27:12;98844.59;;;36.93;21.62
80424;BME280;69765;47.668;19.326;2023-07-31T10:30:17;98847.59;;;36.85;21.82
80424;BME280;69765;47.668;19.326;2023-07-31T10:33:21;98835.06;;;37.25;21.01
80424;BME280;69765;47.668;19.326;2023-07-31T10:36:24;98834.47;;;36.80;22.79
80424;BME280;69765;47.668;19.326;2023-07-31T10:39:35;98837.28;;;37.53;21.66
80424;BME280;69765;47.668;19.326;2023-07-31T10:42:53;98835.50;;;37.16;21.19
80424;BME280;69765;47.668;19.326;2023-07-31T10:45:55;98838.97;;;36.99;22.61
80424;BME280;69765;47.668;19.326;2023-07-31T10:49:02;98831.00;;;37.16;21.97
80424;BME280;69765;47.668;19.326;2023-07-31T10:52:05;98839.63;;;37.04;22.22
80424;BME280;69765;47.668;19.326;2023-07-31T10:55:27;98829.38;;;36.95;21.59
80424;BME280;69765;47.668;19.326;2023-07-31T10:58:30;98830.78;;;36.44;24.04
80424;BME280;69765;47.668;19.326;2023-07-31T11:01:56;98819.38;;;37.55;21.62
80424;BME280;69765;47.668;19.326;2023-07-31T11:05:10;98831.66;;;37.76;21.91
80424;BME280;69765;47.668;19.326;2023-07-31T11:08:18;98823.09;;;36.56;21.85
80424;BME280;69765;47.668;19.326;2023-07-31T11:11:21;98829.84;;;36.24;23.95
80424;BME280;69765;47.668;19.326;2023-07-31T11:14:24;98826.69;;;36.55;23.16
80424;BME280;69765;47.668;19.326;2023-07-31T11:17:26;98828.72;;;36.69;23.05
80424;BME280;69765;47.668;19.326;2023-07-31T11:20:33;98820.91;;;36.46;22.30
80424;BME280;69765;47.668;19.326;2023-07-31T11:23:37;98821.31;;;35.96;22.52
80424;BME280;69765;47.668;19.326;2023-07-31T11:26:49;98819.34;;;36.79;22.20
80424;BME280;69765;47.668;19.326;2023-07-31T11:29:51;98804.81;;;35.42;24.06
80424;BME280;69765;47.668;19.326;2023-07-31T11:32:55;98799.16;;;35.51;23.08
80424;BME280;69765;47.668;19.326;2023-07-31T11:35:58;98812.03;;;34.71;26.03
80424;BME280;69765;47.668;19.326;2023-07-31T11:39:10;98812.59;;;34.06;25.71
80424;BME280;69765;47.668;19.326;2023-07-31T11:42:15;98814.53;;;33.20;26.94
80424;BME280;69765;47.668;19.326;2023-07-31T11:45:18;98813.97;;;32.79;26.96
80424;BME280;69765;47.668;19.326;2023-07-31T11:51:25;98807.03;;;32.75;27.04
80424;BME280;69765;47.668;19.326;2023-07-31T11:54:28;98795.25;;;32.21;28.04
80424;BME280;69765;47.668;19.326;2023-07-31T11:57:31;98803.03;;;32.29;28.51
80424;BME280;69765;47.668;19.326;2023-07-31T12:00:34;98808.38;;;32.88;27.12
80424;BME280;69765;47.668;19.326;2023-07-31T12:03:37;98785.91;;;33.01;27.17
80424;BME280;69765;47.668;19.326;2023-07-31T12:06:40;98792.38;;;33.49;26.55
80424;BME280;69765;47.668;19.326;2023-07-31T12:09:55;98795.97;;;34.26;24.98
80424;BME280;69765;47.668;19.326;2023-07-31T12:13:00;98790.06;;;34.41;25.64
80424;BME280;69765;47.668;19.326;2023-07-31T12:16:04;98785.81;;;34.61;25.42
80424;BME280;69765;47.668;19.326;2023-07-31T12:19:07;98788.22;;;34.68;24.48
80424;BME280;69765;47.668;19.326;2023-07-31T12:22:14;98780.94;;;34.48;24.12
80424;BME280;69765;47.668;19.326;2023-07-31T12:25:16;98772.94;;;34.73;23.90
80424;BME280;69765;47.668;19.326;2023-07-31T12:28:22;98769.75;;;34.39;24.76
80424;BME280;69765;47.668;19.326;2023-07-31T12:31:27;98779.84;;;33.79;25.58
80424;BME280;69765;47.668;19.326;2023-07-31T12:34:31;98757.84;;;33.49;25.11
80424;BME280;69765;47.668;19.326;2023-07-31T12:37:43;98774.94;;;33.67;25.32
80424;BME280;69765;47.668;19.326;2023-07-31T12:40:46;98774.50;;;33.54;25.86
80424;BME280;69765;47.668;19.326;2023-07-31T12:43:48;98769.19;;;32.98;27.17
80424;BME280;69765;47.668;19.326;2023-07-31T12:46:56;98764.56;;;33.04;26.46
80424;BME280;69765;47.668;19.326;2023-07-31T12:49:59;98764.34;;;32.82;26.42
80424;BME280;69765;47.668;19.326;2023-07-31T12:53:02;98759.16;;;33.07;27.85
80424;BME280;69765;47.668;19.326;2023-07-31T12:56:05;98754.25;;;32.35;27.26
80424;BME280;69765;47.668;19.326;2023-07-31T12:59:07;98738.03;;;31.10;29.57
80424;BME280;69765;47.668;19.326;2023-07-31T13:02:10;98731.22;;;30.60;31.47
80424;BME280;69765;47.668;19.326;2023-07-31T13:05:12;98747.97;;;30.60;29.67
80424;BME280;69765;47.668;19.326;2023-07-31T13:08:15;98741.59;;;30.69;30.32
80424;BME280;69765;47.668;19.326;2023-07-31T13:11:19;98733.81;;;30.21;31.34
80424;BME280;69765;47.668;19.326;2023-07-31T13:14:22;98734.31;;;30.40;31.51
80424;BME280;69765;47.668;19.326;2023-07-31T13:17:24;98743.94;;;30.42;30.52
80424;BME280;69765;47.668;19.326;2023-07-31T13:20:27;98741.47;;;29.87;31.18
80424;BME280;69765;47.668;19.326;2023-07-31T13:23:29;98733.09;;;29.63;31.99
80424;BME280;69765;47.668;19.326;2023-07-31T13:26:31;98723.44;;;29.10;31.60
80424;BME280;69765;47.668;19.326;2023-07-31T13:29:34;98726.84;;;29.15;31.75
80424;BME280;69765;47.668;19.326;2023-07-31T13:32:36;98725.06;;;29.17;33.17
80424;BME280;69765;47.668;19.326;2023-07-31T13:35:41;98724.56;;;28.89;31.49
80424;BME280;69765;47.668;19.326;2023-07-31T13:38:43;98728.47;;;28.63;31.56
80424;BME280;69765;47.668;19.326;2023-07-31T13:41:46;98728.28;;;28.77;32.21
80424;BME280;69765;47.668;19.326;2023-07-31T13:44:48;98733.84;;;28.57;32.84
80424;BME280;69765;47.668;19.326;2023-07-31T13:47:50;98728.22;;;28.82;33.08
80424;BME280;69765;47.668;19.326;2023-07-31T13:50:53;98732.22;;;28.45;33.76
80424;BME280;69765;47.668;19.326;2023-07-31T13:53:56;98717.03;;;28.66;34.34
80424;BME280;69765;47.668;19.326;2023-07-31T13:56:58;98725.25;;;28.43;32.82
80424;BME280;69765;47.668;19.326;2023-07-31T14:00:00;98707.75;;;28.36;33.82
80424;BME280;69765;47.668;19.326;2023-07-31T14:03:05;98720.97;;;28.30;35.75
80424;BME280;69765;47.668;19.326;2023-07-31T14:06:08;98720.50;;;28.68;32.46
80424;BME280;69765;47.668;19.326;2023-07-31T14:09:10;98711.97;;;28.49;34.12
80424;BME280;69765;47.668;19.326;2023-07-31T14:12:12;98704.16;;;28.43;33.45
80424;BME280;69765;47.668;19.326;2023-07-31T14:15:26;98699.50;;;28.62;33.62
80424;BME280;69765;47.668;19.326;2023-07-31T14:18:28;98703.91;;;28.60;32.73
80424;BME280;69765;47.668;19.326;2023-07-31T14:21:31;98701.41;;;28.52;32.76
80424;BME280;69765;47.668;19.326;2023-07-31T14:24:33;98697.47;;;28.14;33.41
80424;BME280;69765;47.668;19.326;2023-07-31T14:27:36;98702.34;;;27.72;34.99
80424;BME280;69765;47.668;19.326;2023-07-31T14:30:38;98688.88;;;27.97;34.45
80424;BME280;69765;47.668;19.326;2023-07-31T14:33:41;98692.38;;;28.00;34.08
80424;BME280;69765;47.668;19.326;2023-07-31T14:36:43;98699.44;;;27.95;35.11
80424;BME280;69765;47.668;19.326;2023-07-31T14:39:46;98700.47;;;27.81;35.15
80424;BME280;69765;47.668;19.326;2023-07-31T14:42:49;98694.47;;;27.65;35.94
80424;BME280;69765;47.668;19.326;2023-07-31T14:45:51;98701.56;;;27.58;35.76
80424;BME280;69765;47.668;19.326;2023-07-31T14:48:55;98686.88;;;27.36;35.86
80424;BME280;69765;47.668;19.326;2023-07-31T14:51:57;98683.91;;;27.66;35.19
80424;BME280;69765;47.668;19.326;2023-07-31T14:55:00;98681.91;;;27.93;36.02
80424;BME280;69765;47.668;19.326;2023-07-31T14:58:02;98677.53;;;27.95;34.47
80424;BME280;69765;47.668;19.326;2023-07-31T15:01:05;98670.91;;;28.30;33.24
80424;BME280;69765;47.668;19.326;2023-07-31T15:04:09;98680.19;;;27.92;33.72
80424;BME280;69765;47.668;19.326;2023-07-31T15:07:13;98679.25;;;27.96;34.54
80424;BME280;69765;47.668;19.326;2023-07-31T15:10:17;98682.66;;;28.06;33.60
80424;BME280;69765;47.668;19.326;2023-07-31T15:13:24;98677.66;;;27.80;34.63
80424;BME280;69765;47.668;19.326;2023-07-31T15:16:30;98680.09;;;27.98;34.31
80424;BME280;69765;47.668;19.326;2023-07-31T15:19:34;98672.13;;;28.02;34.63
80424;BME280;69765;47.668;19.326;2023-07-31T15:22:38;98667.75;;;28.01;34.69
80424;BME280;69765;47.668;19.326;2023-07-31T15:25:40;98664.22;;;28.06;34.64
80424;BME280;69765;47.668;19.326;2023-07-31T15:28:48;98660.09;;;27.83;34.81
80424;BME280;69765;47.668;19.326;2023-07-31T15:31:51;98661.81;;;27.86;34.57
80424;BME280;69765;47.668;19.326;2023-07-31T15:34:53;98669.91;;;27.67;35.21
80424;BME280;69765;47.668;19.326;2023-07-31T15:37:55;98671.03;;;27.40;35.12
80424;BME280;69765;47.668;19.326;2023-07-31T15:40:58;98661.56;;;27.22;35.59
80424;BME280;69765;47.668;19.326;2023-07-31T15:44:00;98659.72;;;27.34;35.17
80424;BME280;69765;47.668;19.326;2023-07-31T15:47:03;98648.28;;;27.35;35.88
80424;BME280;69765;47.668;19.326;2023-07-31T15:50:06;98655.16;;;27.49;35.38
80424;BME280;69765;47.668;19.326;2023-07-31T15:53:08;98651.63;;;27.54;34.98
80424;BME280;69765;47.668;19.326;2023-07-31T15:56:11;98653.59;;;27.29;34.03
80424;BME280;69765;47.668;19.326;2023-07-31T15:59:13;98638.13;;;26.93;34.75
80424;BME280;69765;47.668;19.326;2023-07-31T16:02:15;98637.94;;;27.16;35.05
80424;BME280;69765;47.668;19.326;2023-07-31T16:05:18;98639.63;;;27.22;34.39